Time;durP1;ratioP1;P1;durP2;ratioP2;P2;SDS_P1;SDS_P2;PMS_P1;PMS_P2;Temp;Humidity;BMP_temperature;BMP_pressure;BME280_temperature;BME280_humidity;BME280_pressure;Samples;Min_cycle;Max_cycle;Signal;HPM_P1;HPM_P2
2024/03/19 00:01:18;;;;;;;8.68;1.63;;;11.60;99.90;;;;;;5051487;28;20040;-66
2024/03/19 00:03:44;;;;;;;9.18;1.65;;;11.60;99.90;;;;;;5051651;28;20379;-66
2024/03/19 00:06:10;;;;;;;6.93;1.17;;;11.60;99.90;;;;;;5054118;28;20041;-66
2024/03/19 00:08:39;;;;;;;7.15;1.73;;;11.60;99.90;;;;;;5055091;28;20044;-66
2024/03/19 00:11:05;;;;;;;11.23;1.80;;;11.60;99.90;;;;;;5054978;28;20037;-65
2024/03/19 00:13:30;;;;;;;7.97;2.08;;;11.60;99.90;;;;;;5055055;28;20095;-67
2024/03/19 00:15:56;;;;;;;8.70;1.50;;;11.60;99.90;;;;;;5054616;28;20387;-65
2024/03/19 00:18:22;;;;;;;7.95;1.30;;;11.60;99.90;;;;;;5055322;28;20130;-66
2024/03/19 00:20:48;;;;;;;7.85;1.73;;;11.60;99.90;;;;;;5055086;28;20072;-66
2024/03/19 00:23:13;;;;;;;9.88;1.83;;;11.60;99.90;;;;;;5055237;28;20044;-66
2024/03/19 00:25:39;;;;;;;9.52;1.45;;;11.60;99.90;;;;;;5063165;28;20398;-61
2024/03/19 00:28:05;;;;;;;6.07;1.60;;;11.60;99.90;;;;;;5054813;28;20071;-61
2024/03/19 00:30:31;;;;;;;6.45;1.25;;;11.60;99.90;;;;;;5054895;28;20091;-61
2024/03/19 00:32:56;;;;;;;9.02;1.45;;;11.60;99.90;;;;;;5055037;28;20127;-61
2024/03/19 00:35:22;;;;;;;8.23;1.30;;;11.60;99.90;;;;;;5054647;28;20120;-61
2024/03/19 00:37:48;;;;;;;9.60;1.35;;;11.60;99.90;;;;;;5054852;28;20126;-61
2024/03/19 00:40:14;;;;;;;6.75;1.38;;;11.60;99.90;;;;;;5054936;28;20037;-61
2024/03/19 00:42:39;;;;;;;8.63;1.70;;;11.60;99.90;;;;;;5054486;28;20041;-61
2024/03/19 00:45:05;;;;;;;6.10;1.40;;;11.60;99.90;;;;;;5054296;28;20132;-60
2024/03/19 00:47:31;;;;;;;7.50;1.85;;;11.60;99.90;;;;;;5054847;28;20040;-60
2024/03/19 00:49:57;;;;;;;9.73;1.90;;;11.60;99.90;;;;;;5054051;28;20514;-60
2024/03/19 00:52:22;;;;;;;8.63;1.65;;;11.60;99.90;;;;;;5054015;28;20082;-60
2024/03/19 00:54:48;;;;;;;12.13;1.80;;;11.60;99.90;;;;;;5054586;28;20037;-60
2024/03/19 00:57:14;;;;;;;8.50;1.75;;;11.60;99.90;;;;;;5054204;28;20121;-60
2024/03/19 00:59:40;;;;;;;11.40;2.08;;;11.60;99.90;;;;;;5054535;28;20462;-61
2024/03/19 01:02:06;;;;;;;10.32;2.00;;;11.60;99.90;;;;;;5054172;28;20041;-62
2024/03/19 01:04:33;;;;;;;9.38;1.92;;;11.60;99.90;;;;;;5053870;28;20048;-61
2024/03/19 01:07:00;;;;;;;6.72;1.65;;;11.60;99.90;;;;;;5053823;28;20037;-61
2024/03/19 01:09:27;;;;;;;9.93;1.92;;;11.60;99.90;;;;;;5054200;28;20454;-61
2024/03/19 01:11:53;;;;;;;8.07;1.58;;;11.60;99.90;;;;;;5054398;28;20414;-61
2024/03/19 01:14:18;;;;;;;10.60;1.73;;;11.60;99.90;;;;;;5053942;28;20037;-61
2024/03/19 01:16:44;;;;;;;17.77;2.10;;;11.60;99.90;;;;;;5052766;28;20080;-61
2024/03/19 01:19:10;;;;;;;8.02;1.50;;;11.60;99.90;;;;;;5054049;28;20077;-62
2024/03/19 01:21:36;;;;;;;7.55;1.73;;;11.60;99.90;;;;;;5054036;28;20065;-62
2024/03/19 01:24:02;;;;;;;10.50;2.10;;;11.60;99.90;;;;;;5054125;28;20037;-61
2024/03/19 01:26:28;;;;;;;8.48;1.77;;;11.60;99.90;;;;;;5053784;28;20378;-61
2024/03/19 01:28:53;;;;;;;11.40;2.22;;;11.60;99.90;;;;;;5053545;28;20045;-61
2024/03/19 01:31:19;;;;;;;10.25;1.90;;;11.60;99.90;;;;;;5053772;28;20037;-61
2024/03/19 01:33:45;;;;;;;10.10;2.08;;;11.60;99.90;;;;;;5053547;28;20041;-61
2024/03/19 01:36:11;;;;;;;12.05;2.00;;;11.60;99.90;;;;;;5053682;28;20086;-61
2024/03/19 01:38:37;;;;;;;12.48;1.80;;;11.60;99.90;;;;;;5053717;28;20037;-61
2024/03/19 01:41:03;;;;;;;11.55;1.92;;;11.60;99.90;;;;;;5053541;28;20041;-62
2024/03/19 01:43:29;;;;;;;10.45;1.83;;;11.60;99.90;;;;;;5053621;28;20508;-62
2024/03/19 01:45:55;;;;;;;9.20;1.52;;;11.60;99.90;;;;;;5053302;28;20151;-61
2024/03/19 01:48:21;;;;;;;7.95;1.60;;;11.50;99.90;;;;;;5053516;28;20040;-61
2024/03/19 01:50:47;;;;;;;7.75;1.70;;;11.50;99.90;;;;;;5053365;28;20044;-61
2024/03/19 01:53:13;;;;;;;13.15;2.13;;;11.50;99.90;;;;;;5053288;28;20040;-61
2024/03/19 01:55:39;;;;;;;11.43;1.70;;;11.50;99.90;;;;;;5053152;28;20178;-69
2024/03/19 01:58:04;;;;;;;10.88;1.80;;;11.50;99.90;;;;;;5053406;28;20069;-69
2024/03/19 02:00:30;;;;;;;10.68;1.48;;;11.40;99.90;;;;;;5053422;28;20068;-70
2024/03/19 02:02:56;;;;;;;6.95;1.77;;;11.40;99.90;;;;;;5053092;28;20083;-69
2024/03/19 02:05:22;;;;;;;9.15;1.92;;;11.30;99.90;;;;;;5053006;28;20082;-69
2024/03/19 02:07:47;;;;;;;12.60;2.15;;;11.30;99.90;;;;;;5052859;28;20036;-69
2024/03/19 02:10:13;;;;;;;7.70;2.00;;;11.20;99.90;;;;;;5052832;28;20595;-70
2024/03/19 02:12:39;;;;;;;6.43;1.45;;;11.20;99.90;;;;;;5052797;28;20118;-70
2024/03/19 02:15:05;;;;;;;14.63;1.98;;;11.10;99.90;;;;;;5052551;28;20037;-69
2024/03/19 02:17:30;;;;;;;14.50;2.25;;;11.10;99.90;;;;;;5052985;28;20033;-70
2024/03/19 02:19:57;;;;;;;12.52;2.10;;;11.00;99.90;;;;;;5052754;28;20494;-69
2024/03/19 02:22:22;;;;;;;8.38;1.65;;;11.00;99.90;;;;;;5052724;28;20045;-69
2024/03/19 02:24:48;;;;;;;10.40;1.77;;;11.00;99.90;;;;;;5053057;28;20154;-69
2024/03/19 02:27:14;;;;;;;9.00;2.03;;;11.00;99.90;;;;;;5052537;28;20628;-69
2024/03/19 02:29:43;;;;;;;9.20;1.55;;;11.00;99.90;;;;;;5052499;28;20128;-69
2024/03/19 02:32:09;;;;;;;10.20;1.70;;;10.90;99.90;;;;;;5052730;28;20052;-69
2024/03/19 02:34:35;;;;;;;10.05;1.75;;;10.90;99.90;;;;;;5052726;28;20041;-66
2024/03/19 02:37:01;;;;;;;7.45;1.40;;;10.90;99.90;;;;;;5052729;28;20044;-65
2024/03/19 02:39:27;;;;;;;7.95;1.88;;;10.90;99.90;;;;;;5052694;28;20041;-65
2024/03/19 02:41:53;;;;;;;9.65;2.08;;;10.80;99.90;;;;;;5052122;28;20045;-65
2024/03/19 02:44:18;;;;;;;7.00;1.73;;;10.90;99.90;;;;;;5052510;28;20075;-65
2024/03/19 02:46:44;;;;;;;11.10;2.05;;;10.90;99.90;;;;;;5052321;28;20103;-65
2024/03/19 02:49:10;;;;;;;6.95;1.60;;;10.90;99.90;;;;;;5052376;28;20037;-65
2024/03/19 02:51:36;;;;;;;7.70;1.77;;;10.90;99.90;;;;;;5052474;28;20068;-65
2024/03/19 02:54:01;;;;;;;10.45;2.10;;;10.90;99.90;;;;;;5052416;28;20053;-64
2024/03/19 02:56:27;;;;;;;9.05;1.63;;;10.90;99.90;;;;;;5052128;28;20036;-65
2024/03/19 02:58:53;;;;;;;11.48;2.15;;;10.90;99.90;;;;;;5052303;28;20041;-65
2024/03/19 03:01:19;;;;;;;11.40;2.28;;;10.90;99.90;;;;;;5052453;28;20076;-65
2024/03/19 03:03:44;;;;;;;7.13;1.70;;;10.90;99.90;;;;;;5052217;28;20118;-67
2024/03/19 03:06:10;;;;;;;12.07;1.95;;;10.90;99.90;;;;;;5052069;28;20048;-65
2024/03/19 03:08:36;;;;;;;11.35;2.05;;;10.90;99.90;;;;;;5052095;28;20099;-65
2024/03/19 03:11:03;;;;;;;7.90;1.80;;;11.00;99.90;;;;;;5051964;28;20379;-67
2024/03/19 03:13:29;;;;;;;13.15;2.28;;;11.00;99.90;;;;;;5052268;28;20052;-66
2024/03/19 03:15:56;;;;;;;10.32;1.90;;;11.00;99.90;;;;;;5051552;28;20080;-65
2024/03/19 03:18:22;;;;;;;10.27;1.73;;;11.00;99.90;;;;;;5051704;28;20037;-65
2024/03/19 03:20:47;;;;;;;7.35;2.10;;;11.00;99.90;;;;;;5052087;28;20049;-66
2024/03/19 03:23:13;;;;;;;12.02;2.38;;;11.00;99.90;;;;;;5051810;28;20041;-66
2024/03/19 03:25:39;;;;;;;9.15;1.60;;;11.00;99.90;;;;;;5051871;28;20041;-67
2024/03/19 03:28:05;;;;;;;10.35;1.55;;;11.00;99.90;;;;;;5052081;28;20403;-66
2024/03/19 03:30:31;;;;;;;8.80;1.88;;;11.00;99.90;;;;;;5052134;28;20037;-66
2024/03/19 03:32:56;;;;;;;10.20;1.60;;;11.00;99.90;;;;;;5052040;28;20120;-66
2024/03/19 03:35:22;;;;;;;7.63;1.65;;;11.00;99.90;;;;;;5052096;28;20041;-66
2024/03/19 03:37:48;;;;;;;7.93;2.00;;;11.00;99.90;;;;;;5051833;28;20172;-66
2024/03/19 03:40:17;;;;;;;6.85;1.67;;;11.00;99.90;;;;;;5052821;28;20056;-66
2024/03/19 03:42:43;;;;;;;12.38;1.70;;;11.00;99.90;;;;;;5055751;28;20049;-65
2024/03/19 03:45:10;;;;;;;11.85;1.70;;;11.00;99.90;;;;;;5055735;28;20403;-65
2024/03/19 03:47:36;;;;;;;6.32;1.35;;;11.00;99.90;;;;;;5055522;28;20074;-65
2024/03/19 03:50:01;;;;;;;12.35;2.28;;;11.00;99.90;;;;;;5055697;28;20037;-66
2024/03/19 03:52:32;;;;;;;7.60;1.52;;;11.00;99.90;;;;;;5055473;28;20115;-66
2024/03/19 03:54:58;;;;;;;12.32;1.85;;;10.90;99.90;;;;;;5055860;28;20049;-66
2024/03/19 03:57:24;;;;;;;8.60;1.70;;;10.90;99.90;;;;;;5055377;28;20037;-66
2024/03/19 03:59:50;;;;;;;8.13;1.55;;;10.90;99.90;;;;;;5055576;28;20049;-65
2024/03/19 04:02:15;;;;;;;6.80;1.45;;;10.80;99.90;;;;;;5055687;28;20044;-66
2024/03/19 04:04:41;;;;;;;7.55;1.58;;;10.80;99.90;;;;;;5052918;28;20863;-66
2024/03/19 04:07:07;;;;;;;6.95;1.85;;;10.80;99.90;;;;;;5060394;28;20166;-67
2024/03/19 04:09:33;;;;;;;6.50;1.65;;;10.70;99.90;;;;;;5055332;28;20041;-66
2024/03/19 04:11:58;;;;;;;9.82;1.40;;;10.70;99.90;;;;;;5055251;28;20049;-65
2024/03/19 04:14:24;;;;;;;10.15;1.65;;;10.60;99.90;;;;;;5055206;28;20040;-65
2024/03/19 04:16:50;;;;;;;7.72;1.52;;;10.60;99.90;;;;;;5038036;28;20391;-65
2024/03/19 04:19:16;;;;;;;11.48;1.80;;;10.60;99.90;;;;;;5055368;28;20044;-65
2024/03/19 04:21:42;;;;;;;4.72;1.33;;;10.60;99.90;;;;;;5054694;28;20033;-65
2024/03/19 04:24:07;;;;;;;11.20;1.67;;;10.60;99.90;;;;;;5054817;28;20375;-65
2024/03/19 04:26:36;;;;;;;7.00;1.50;;;10.60;99.90;;;;;;5055130;28;20040;-65
2024/03/19 04:29:02;;;;;;;8.57;1.88;;;10.60;99.90;;;;;;5055003;28;20041;-63
2024/03/19 04:31:28;;;;;;;7.28;1.58;;;10.60;99.90;;;;;;5054798;28;20448;-63
2024/03/19 04:33:54;;;;;;;8.25;1.45;;;10.60;99.90;;;;;;5054965;28;20430;-63
2024/03/19 04:36:19;;;;;;;9.65;1.92;;;10.60;99.90;;;;;;5054540;28;20048;-63
2024/03/19 04:38:45;;;;;;;7.57;1.40;;;10.60;99.90;;;;;;5054878;28;20120;-70
2024/03/19 04:41:11;;;;;;;8.15;1.60;;;10.60;99.90;;;;;;5054844;28;20453;-69
2024/03/19 04:43:37;;;;;;;8.05;1.70;;;10.60;99.90;;;;;;5054330;28;20494;-69
2024/03/19 04:46:03;;;;;;;5.40;1.35;;;10.60;99.90;;;;;;5061136;28;20033;-70
2024/03/19 04:48:28;;;;;;;10.13;1.88;;;10.60;99.90;;;;;;5074413;28;20127;-63
2024/03/19 04:50:54;;;;;;;7.13;1.50;;;10.60;99.90;;;;;;5074575;28;20032;-63
2024/03/19 04:53:20;;;;;;;11.77;2.08;;;10.60;99.90;;;;;;5056735;28;20067;-63
2024/03/19 04:55:46;;;;;;;9.25;1.60;;;10.60;99.90;;;;;;5074442;28;20040;-63
2024/03/19 04:58:12;;;;;;;9.75;1.80;;;10.60;99.90;;;;;;5057741;28;20497;-61
2024/03/19 05:00:37;;;;;;;7.57;1.35;;;10.60;99.90;;;;;;5074225;28;20560;-61
2024/03/19 05:03:03;;;;;;;8.50;1.50;;;10.60;99.90;;;;;;5074390;28;20041;-61
2024/03/19 05:05:29;;;;;;;9.15;1.80;;;10.60;99.90;;;;;;5074352;28;20489;-61
2024/03/19 05:07:55;;;;;;;6.55;1.60;;;10.70;99.90;;;;;;5059085;28;20091;-61
2024/03/19 05:10:20;;;;;;;9.32;1.67;;;10.70;99.90;;;;;;5054209;28;20041;-62
2024/03/19 05:12:46;;;;;;;8.07;1.48;;;10.70;99.90;;;;;;5054267;28;20036;-61
2024/03/19 05:15:12;;;;;;;7.82;1.80;;;10.70;99.90;;;;;;5070041;28;20041;-61
2024/03/19 05:17:38;;;;;;;6.82;1.60;;;10.80;99.90;;;;;;5054153;28;20065;-62
2024/03/19 05:20:06;;;;;;;6.50;1.60;;;10.80;99.90;;;;;;5054281;28;20048;-62
2024/03/19 05:22:32;;;;;;;9.48;1.83;;;10.80;99.90;;;;;;5070504;28;20119;-62
2024/03/19 05:24:57;;;;;;;8.40;1.70;;;10.80;99.90;;;;;;5053508;28;20530;-64
2024/03/19 05:27:23;;;;;;;8.88;1.40;;;10.80;99.90;;;;;;5070412;28;20036;-65
2024/03/19 05:29:49;;;;;;;8.07;1.85;;;10.80;99.90;;;;;;5053821;28;20032;-66
2024/03/19 05:32:15;;;;;;;9.20;1.42;;;10.80;99.90;;;;;;5053703;28;20124;-67
2024/03/19 05:34:41;;;;;;;7.78;1.63;;;10.90;99.90;;;;;;5053386;28;20449;-66
2024/03/19 05:37:07;;;;;;;9.95;1.90;;;10.90;99.90;;;;;;5053876;28;20033;-70
2024/03/19 05:39:33;;;;;;;10.52;2.28;;;10.90;99.90;;;;;;5053815;28;20052;-67
2024/03/19 05:41:59;;;;;;;8.50;1.98;;;10.80;99.90;;;;;;5053217;28;20044;-67
2024/03/19 05:44:25;;;;;;;7.35;1.48;;;10.80;99.90;;;;;;5053227;28;20044;-65
2024/03/19 05:46:50;;;;;;;9.68;2.00;;;10.80;99.90;;;;;;5053656;28;20049;-65
2024/03/19 05:49:16;;;;;;;10.63;1.60;;;10.80;99.90;;;;;;5053445;28;20040;-65
2024/03/19 05:51:42;;;;;;;6.30;1.30;;;10.80;99.90;;;;;;5053392;28;20067;-61
2024/03/19 05:54:08;;;;;;;8.30;1.63;;;10.90;99.90;;;;;;5053219;28;20044;-61
2024/03/19 05:56:34;;;;;;;10.27;1.90;;;10.90;99.90;;;;;;5053406;28;20557;-60
2024/03/19 05:58:59;;;;;;;9.20;1.73;;;10.90;99.90;;;;;;5053531;28;20382;-61
2024/03/19 06:01:25;;;;;;;8.48;2.03;;;10.90;99.90;;;;;;5052944;28;20033;-61
2024/03/19 06:03:51;;;;;;;8.48;1.83;;;10.90;99.90;;;;;;5053074;28;20358;-60
2024/03/19 06:06:18;;;;;;;5.82;1.40;;;10.90;99.90;;;;;;5052985;28;20088;-60
2024/03/19 06:08:44;;;;;;;12.15;2.35;;;10.90;99.90;;;;;;5052786;28;20065;-62
2024/03/19 06:11:10;;;;;;;7.32;1.77;;;10.90;99.90;;;;;;5053116;28;20037;-64
2024/03/19 06:13:36;;;;;;;14.55;2.47;;;10.90;99.90;;;;;;5053044;28;20394;-63
2024/03/19 06:16:02;;;;;;;7.63;1.90;;;10.90;99.90;;;;;;5052369;28;20080;-60
2024/03/19 06:18:28;;;;;;;10.52;2.20;;;10.90;99.90;;;;;;5053027;28;20444;-60
2024/03/19 06:20:54;;;;;;;7.57;1.85;;;10.90;99.90;;;;;;5052694;28;20044;-61
2024/03/19 06:23:20;;;;;;;8.00;1.75;;;10.90;99.90;;;;;;5052781;28;20048;-64
2024/03/19 06:25:46;;;;;;;9.35;1.63;;;10.90;99.90;;;;;;5052771;28;20497;-63
2024/03/19 06:28:12;;;;;;;11.52;2.17;;;10.90;99.90;;;;;;5052748;28;20041;-64
2024/03/19 06:30:38;;;;;;;11.05;1.83;;;11.00;99.90;;;;;;5052483;28;20037;-63
2024/03/19 06:33:04;;;;;;;9.15;1.70;;;11.00;99.90;;;;;;5052800;28;20060;-63
2024/03/19 06:35:31;;;;;;;11.30;1.98;;;11.00;99.90;;;;;;5052381;28;20041;-63
2024/03/19 06:37:57;;;;;;;10.13;1.98;;;11.00;99.90;;;;;;5052773;28;20051;-64
2024/03/19 06:40:23;;;;;;;12.13;2.38;;;11.00;99.90;;;;;;5052219;28;20037;-61
2024/03/19 06:42:48;;;;;;;8.93;2.10;;;11.00;99.90;;;;;;5052320;28;20048;-66
2024/03/19 06:45:14;;;;;;;9.48;2.15;;;11.10;99.90;;;;;;5052548;28;20118;-64
2024/03/19 06:47:40;;;;;;;9.35;1.58;;;11.10;99.90;;;;;;5052315;28;20163;-64
2024/03/19 06:50:06;;;;;;;8.98;2.00;;;11.10;99.90;;;;;;5052325;28;20033;-62
2024/03/19 06:52:32;;;;;;;10.90;2.30;;;11.10;99.90;;;;;;5052242;28;20102;-61
2024/03/19 06:54:58;;;;;;;10.68;2.30;;;11.10;99.90;;;;;;5052418;28;20040;-70
2024/03/19 06:57:23;;;;;;;12.30;2.38;;;11.10;99.90;;;;;;5052239;28;20037;-66
2024/03/19 06:59:49;;;;;;;10.82;2.30;;;11.20;99.90;;;;;;5052590;28;20041;-66
2024/03/19 07:02:18;;;;;;;10.50;2.03;;;11.20;99.90;;;;;;5052497;28;20045;-67
2024/03/19 07:04:43;;;;;;;9.52;2.33;;;11.20;99.90;;;;;;5052172;28;20352;-66
2024/03/19 07:07:13;;;;;;;8.52;1.77;;;11.20;99.90;;;;;;5052018;28;20084;-67
2024/03/19 07:09:38;;;;;;;10.98;2.80;;;11.20;99.90;;;;;;5052213;28;20049;-67
2024/03/19 07:12:04;;;;;;;9.00;2.22;;;11.20;99.90;;;;;;5052173;28;20099;-67
2024/03/19 07:14:30;;;;;;;11.02;1.92;;;11.20;99.90;;;;;;5051968;28;20064;-70
2024/03/19 07:16:56;;;;;;;11.93;2.03;;;11.20;99.90;;;;;;5055696;28;20406;-70
2024/03/19 07:19:22;;;;;;;13.07;2.13;;;11.20;99.90;;;;;;5056092;28;20119;-70
2024/03/19 07:21:48;;;;;;;10.63;2.15;;;11.20;99.90;;;;;;5055973;28;20045;-70
2024/03/19 07:24:13;;;;;;;10.93;2.15;;;11.30;99.90;;;;;;5056117;28;20163;-62
2024/03/19 07:26:39;;;;;;;10.18;2.13;;;11.30;99.90;;;;;;5055794;28;20099;-62
2024/03/19 07:29:05;;;;;;;10.18;2.05;;;11.50;99.90;;;;;;5055737;28;20040;-62
2024/03/19 07:31:31;;;;;;;9.57;1.92;;;11.50;99.90;;;;;;5056117;28;20059;-61
2024/03/19 07:33:57;;;;;;;8.20;1.95;;;11.60;99.90;;;;;;5056045;28;20474;-62
2024/03/19 07:36:23;;;;;;;9.93;1.88;;;11.70;99.90;;;;;;5055936;28;20494;-62
2024/03/19 07:38:49;;;;;;;9.95;1.65;;;11.80;99.90;;;;;;5055689;28;20037;-62
2024/03/19 07:41:15;;;;;;;8.75;2.03;;;11.90;99.90;;;;;;5039202;28;20041;-63
2024/03/19 07:43:41;;;;;;;9.85;1.73;;;11.90;99.90;;;;;;5055635;28;20110;-62
2024/03/19 07:46:06;;;;;;;9.85;1.92;;;12.00;99.90;;;;;;5055386;28;20044;-61
2024/03/19 07:48:32;;;;;;;5.97;2.00;;;12.10;99.90;;;;;;5055594;28;20049;-62
2024/03/19 07:50:58;;;;;;;7.20;1.70;;;12.10;99.90;;;;;;5055554;28;20067;-62
2024/03/19 07:53:25;;;;;;;10.55;1.85;;;12.20;99.90;;;;;;5055791;28;20065;-61
2024/03/19 07:55:51;;;;;;;9.48;2.10;;;12.20;99.90;;;;;;5055545;28;20053;-61
2024/03/19 07:58:16;;;;;;;8.43;1.95;;;12.30;99.90;;;;;;5055458;28;20052;-64
2024/03/19 08:00:42;;;;;;;9.68;2.15;;;12.30;99.90;;;;;;5054736;28;20144;-63
2024/03/19 08:03:08;;;;;;;9.43;1.50;;;12.40;99.90;;;;;;5046602;28;20045;-63
2024/03/19 08:05:35;;;;;;;8.88;1.90;;;12.50;99.90;;;;;;5051545;28;20069;-64
2024/03/19 08:08:02;;;;;;;9.90;1.75;;;12.50;99.90;;;;;;5035171;28;20059;-64
2024/03/19 08:10:27;;;;;;;5.88;1.52;;;12.60;99.90;;;;;;5040053;28;20136;-62
2024/03/19 08:12:53;;;;;;;7.47;1.70;;;12.60;99.90;;;;;;5055265;28;20462;-61
2024/03/19 08:15:19;;;;;;;8.02;1.67;;;12.70;99.90;;;;;;5054668;28;20466;-62
2024/03/19 08:17:45;;;;;;;10.60;2.28;;;12.80;99.90;;;;;;5055243;28;20038;-62
2024/03/19 08:20:15;;;;;;;7.90;2.15;;;12.90;99.90;;;;;;5055190;28;20052;-63
2024/03/19 08:22:41;;;;;;;8.05;1.63;;;12.90;99.90;;;;;;5038406;28;20490;-64
2024/03/19 08:25:08;;;;;;;7.22;1.77;;;12.90;99.90;;;;;;5038416;28;20041;-67
2024/03/19 08:27:34;;;;;;;8.65;1.98;;;12.90;99.90;;;;;;5054879;28;20041;-67
2024/03/19 08:30:01;;;;;;;7.38;1.50;;;12.90;99.90;;;;;;5055094;28;20421;-67
2024/03/19 08:32:27;;;;;;;5.68;1.73;;;12.90;99.90;;;;;;5054878;28;20494;-65
2024/03/19 08:34:53;;;;;;;6.60;1.48;;;12.90;99.90;;;;;;5054601;28;20033;-65
2024/03/19 08:37:19;;;;;;;8.43;1.92;;;12.90;99.90;;;;;;5054655;28;20128;-67
2024/03/19 08:39:45;;;;;;;6.70;1.52;;;12.90;99.90;;;;;;5055166;28;20044;-66
2024/03/19 08:42:10;;;;;;;7.55;2.17;;;12.80;99.90;;;;;;5054662;28;20048;-66
2024/03/19 08:44:36;;;;;;;4.43;1.20;;;12.80;99.90;;;;;;5054472;28;20076;-66
2024/03/19 08:47:02;;;;;;;9.70;1.75;;;12.70;99.90;;;;;;5054448;28;20500;-66
2024/03/19 08:49:28;;;;;;;6.40;1.80;;;12.70;99.90;;;;;;5054597;28;20033;-67
2024/03/19 08:51:54;;;;;;;9.00;1.88;;;12.70;99.90;;;;;;5053222;28;20060;-66
2024/03/19 08:54:20;;;;;;;8.27;2.30;;;12.70;99.90;;;;;;5054621;28;20057;-66
2024/03/19 08:56:46;;;;;;;9.82;1.55;;;12.80;99.90;;;;;;5054473;28;20045;-62
2024/03/19 08:59:13;;;;;;;8.93;1.70;;;12.80;99.90;;;;;;5054361;28;20101;-61
2024/03/19 09:01:39;;;;;;;8.18;1.77;;;12.90;99.90;;;;;;5053289;28;20045;-61
2024/03/19 09:04:06;;;;;;;9.35;2.00;;;12.90;99.90;;;;;;5053821;28;20037;-62
2024/03/19 09:06:31;;;;;;;7.20;2.08;;;12.90;99.90;;;;;;5053499;28;20078;-62
2024/03/19 09:08:57;;;;;;;9.05;1.75;;;12.90;99.90;;;;;;5053777;28;20410;-62
2024/03/19 09:11:23;;;;;;;9.48;2.03;;;12.90;99.90;;;;;;5053621;28;20063;-62
2024/03/19 09:13:49;;;;;;;8.35;1.63;;;13.00;99.90;;;;;;5053689;28;20037;-62
2024/03/19 09:16:15;;;;;;;9.38;1.90;;;13.00;99.90;;;;;;5053285;28;20069;-62
2024/03/19 09:18:42;;;;;;;7.07;1.60;;;13.00;99.90;;;;;;5053399;28;20398;-62
2024/03/19 09:21:08;;;;;;;7.68;1.60;;;13.10;99.90;;;;;;5036823;28;20725;-62
2024/03/19 09:23:34;;;;;;;6.72;1.42;;;13.10;99.90;;;;;;5053447;28;20049;-62
2024/03/19 09:26:00;;;;;;;7.50;1.52;;;13.20;99.90;;;;;;5052974;28;20094;-62
2024/03/19 09:28:29;;;;;;;5.93;1.38;;;13.20;99.90;;;;;;5053034;28;20037;-61
2024/03/19 09:30:55;;;;;;;9.15;2.67;;;13.20;99.90;;;;;;5052881;28;20381;-61
2024/03/19 09:33:22;;;;;;;7.18;1.80;;;13.20;99.90;;;;;;5053116;28;20037;-61
2024/03/19 09:35:48;;;;;;;6.38;1.40;;;13.20;99.90;;;;;;5052890;28;20044;-61
2024/03/19 09:38:15;;;;;;;8.10;1.70;;;13.30;99.90;;;;;;5052182;28;20406;-61
2024/03/19 09:40:41;;;;;;;10.48;1.95;;;13.20;99.90;;;;;;5052941;28;20045;-61
2024/03/19 09:43:07;;;;;;;8.38;1.30;;;13.30;99.90;;;;;;5052972;28;20126;-61
2024/03/19 09:45:33;;;;;;;8.07;1.60;;;13.30;99.90;;;;;;5052935;28;20529;-61
2024/03/19 09:47:59;;;;;;;8.15;1.30;;;13.30;99.90;;;;;;5052636;28;20045;-66
2024/03/19 09:50:25;;;;;;;5.15;1.25;;;13.40;99.90;;;;;;5052622;28;20144;-68
2024/03/19 09:52:51;;;;;;;4.72;1.55;;;13.50;99.90;;;;;;5052741;28;20044;-68
2024/03/19 09:55:17;;;;;;;5.53;1.05;;;13.40;99.90;;;;;;5052329;28;20041;-61
2024/03/19 09:57:45;;;;;;;4.22;1.20;;;13.50;99.90;;;;;;5052405;28;20090;-61
2024/03/19 10:00:11;;;;;;;6.40;1.30;;;13.50;99.90;;;;;;5052171;28;20037;-62
2024/03/19 10:02:38;;;;;;;4.75;1.42;;;13.60;99.90;;;;;;5052377;28;20094;-62
2024/03/19 10:05:04;;;;;;;6.32;1.38;;;13.70;99.90;;;;;;5052491;28;20063;-63
2024/03/19 10:07:30;;;;;;;5.35;1.52;;;13.90;99.90;;;;;;5052476;28;20045;-62
2024/03/19 10:09:56;;;;;;;6.70;1.48;;;13.90;99.90;;;;;;5052219;28;20428;-62
2024/03/19 10:12:23;;;;;;;7.18;1.40;;;14.00;99.90;;;;;;5052542;28;20474;-61
2024/03/19 10:14:49;;;;;;;6.43;1.60;;;14.10;99.90;;;;;;5052363;28;20474;-61
2024/03/19 10:17:15;;;;;;;6.78;1.33;;;14.10;99.90;;;;;;5052338;28;20116;-62
2024/03/19 10:19:41;;;;;;;5.20;1.23;;;14.10;99.90;;;;;;5052195;28;20045;-64
2024/03/19 10:22:06;;;;;;;5.88;1.10;;;14.00;99.90;;;;;;5052102;28;20052;-70
2024/03/19 10:24:32;;;;;;;6.50;1.35;;;13.90;99.90;;;;;;5052025;28;20041;-65
2024/03/19 10:26:58;;;;;;;4.43;1.10;;;13.90;99.90;;;;;;5051720;28;20095;-63
2024/03/19 10:29:24;;;;;;;6.88;1.15;;;13.80;99.90;;;;;;5034867;28;20124;-67
2024/03/19 10:31:50;;;;;;;5.25;1.35;;;13.90;99.90;;;;;;5035571;28;20037;-67
2024/03/19 10:34:17;;;;;;;5.72;1.33;;;13.90;99.90;;;;;;5052227;28;20128;-68
2024/03/19 10:36:42;;;;;;;7.68;1.55;;;13.90;99.90;;;;;;5051327;28;20474;-66
2024/03/19 10:39:09;;;;;;;5.28;1.33;;;13.90;99.90;;;;;;5051999;28;20072;-66
2024/03/19 10:41:35;;;;;;;3.58;0.85;;;14.00;99.90;;;;;;5051122;28;20462;-61
2024/03/19 10:44:01;;;;;;;4.55;1.92;;;14.00;99.90;;;;;;5051765;28;20099;-66
2024/03/19 10:46:27;;;;;;;4.57;1.20;;;14.00;99.90;;;;;;5051215;28;20386;-67
2024/03/19 10:48:52;;;;;;;4.93;1.60;;;14.00;99.90;;;;;;5051698;28;20102;-67
2024/03/19 10:51:18;;;;;;;5.93;1.50;;;13.90;99.90;;;;;;5050732;28;20041;-66
2024/03/19 10:53:44;;;;;;;5.88;1.40;;;13.80;99.90;;;;;;5052310;28;20041;-67
2024/03/19 10:56:10;;;;;;;5.45;1.30;;;13.80;99.90;;;;;;5052341;28;20043;-63
2024/03/19 10:58:36;;;;;;;5.50;1.27;;;13.80;99.90;;;;;;5051744;28;20037;-66
2024/03/19 11:01:03;;;;;;;10.45;1.77;;;13.90;99.90;;;;;;5052166;28;20044;-61
2024/03/19 11:03:29;;;;;;;6.18;1.42;;;13.90;99.90;;;;;;5051842;28;20052;-67
2024/03/19 11:06:00;;;;;;;10.05;2.05;;;13.90;99.90;;;;;;5051547;28;20073;-68
2024/03/19 11:08:26;;;;;;;6.22;1.60;;;13.90;99.90;;;;;;5051762;28;20119;-69
2024/03/19 11:10:52;;;;;;;9.65;1.73;;;13.90;99.90;;;;;;5051886;28;20497;-66
2024/03/19 11:13:21;;;;;;;6.80;1.60;;;13.90;99.90;;;;;;5051934;28;20134;-67
2024/03/19 11:15:47;;;;;;;6.88;1.60;;;14.00;99.90;;;;;;5051368;28;20049;-65
2024/03/19 11:18:13;;;;;;;6.28;1.60;;;14.10;99.90;;;;;;5051970;28;20036;-68
2024/03/19 11:20:45;;;;;;;10.43;1.38;;;14.10;99.90;;;;;;5051575;28;20478;-66
2024/03/19 11:23:10;;;;;;;5.53;1.40;;;14.10;99.90;;;;;;5051705;28;20369;-63
2024/03/19 11:25:36;;;;;;;4.82;1.30;;;14.10;99.90;;;;;;5051755;28;20067;-63
2024/03/19 11:28:02;;;;;;;4.88;1.13;;;14.00;99.90;;;;;;5051419;28;20037;-68
2024/03/19 11:30:28;;;;;;;8.30;1.35;;;14.00;99.90;;;;;;5052305;28;20053;-63
2024/03/19 11:32:53;;;;;;;4.00;1.10;;;14.00;99.90;;;;;;5052213;28;20057;-62
2024/03/19 11:35:19;;;;;;;6.85;1.20;;;14.00;99.90;;;;;;5052131;28;20069;-65
2024/03/19 11:37:45;;;;;;;5.18;1.17;;;13.90;99.90;;;;;;5051907;28;20040;-61
2024/03/19 11:40:12;;;;;;;4.85;1.30;;;13.90;99.90;;;;;;5052188;28;20037;-63
2024/03/19 11:42:37;;;;;;;4.80;1.38;;;13.90;99.90;;;;;;5052034;28;20049;-63
2024/03/19 11:45:03;;;;;;;3.90;1.48;;;13.90;99.90;;;;;;5051645;28;20065;-63
2024/03/19 11:47:29;;;;;;;5.07;1.08;;;13.90;99.90;;;;;;5051503;28;20045;-64
2024/03/19 11:49:55;;;;;;;5.22;1.27;;;13.90;99.90;;;;;;5051813;28;20048;-63
2024/03/19 11:52:21;;;;;;;4.78;1.15;;;13.90;99.90;;;;;;5052033;28;20124;-63
2024/03/19 11:54:46;;;;;;;3.47;1.10;;;14.00;99.90;;;;;;5051950;28;20033;-63
2024/03/19 11:57:12;;;;;;;6.15;1.30;;;14.00;99.90;;;;;;5051710;28;20029;-64
2024/03/19 11:59:38;;;;;;;5.65;1.25;;;14.10;99.90;;;;;;5051681;28;20434;-63
2024/03/19 12:02:04;;;;;;;5.03;1.30;;;14.10;99.90;;;;;;5054003;28;20045;-66
2024/03/19 12:04:31;;;;;;;8.32;1.40;;;14.20;99.90;;;;;;5055135;28;20470;-64
2024/03/19 12:06:57;;;;;;;4.30;1.30;;;14.20;99.90;;;;;;5055225;28;20065;-63
2024/03/19 12:09:23;;;;;;;6.68;1.10;;;14.20;99.90;;;;;;5055769;28;20379;-63
2024/03/19 12:11:49;;;;;;;4.95;0.70;;;14.20;99.90;;;;;;5055071;28;20394;-64
2024/03/19 12:14:15;;;;;;;5.00;0.80;;;14.20;99.90;;;;;;5054977;28;20053;-64
2024/03/19 12:16:41;;;;;;;3.70;0.73;;;14.10;99.90;;;;;;5055005;28;20064;-62
2024/03/19 12:19:07;;;;;;;3.17;0.77;;;14.00;99.90;;;;;;5055491;28;20033;-62
2024/03/19 12:21:33;;;;;;;4.57;0.98;;;14.00;99.90;;;;;;5054840;28;20091;-62
2024/03/19 12:23:58;;;;;;;3.05;0.70;;;14.00;99.90;;;;;;5055203;28;20079;-62
2024/03/19 12:26:24;;;;;;;3.47;0.73;;;14.10;99.90;;;;;;5054868;28;20155;-63
2024/03/19 12:28:50;;;;;;;3.85;0.77;;;14.10;99.90;;;;;;5055005;28;20067;-63
2024/03/19 12:31:22;;;;;;;4.28;1.02;;;14.10;99.90;;;;;;5055185;28;20068;-63
2024/03/19 12:33:53;;;;;;;2.80;0.60;;;14.30;99.90;;;;;;5055194;28;20604;-63
2024/03/19 12:36:19;;;;;;;2.13;0.70;;;14.30;99.90;;;;;;5055069;28;20048;-64
2024/03/19 12:38:45;;;;;;;1.65;0.50;;;14.30;99.90;;;;;;5054824;28;20040;-64